createdAt,value
2023-12-05T00:01:17.860Z,21.40
2023-12-05T00:02:49.672Z,19.20
2023-12-05T00:04:21.795Z,19.10
2023-12-05T00:05:53.657Z,18.60
2023-12-05T00:07:26.765Z,20.00
2023-12-05T00:08:58.762Z,17.50
2023-12-05T00:10:31.228Z,19.10
2023-12-05T00:12:03.077Z,18.70
2023-12-05T00:13:35.794Z,16.00
2023-12-05T00:15:08.232Z,18.20
2023-12-05T00:16:39.980Z,17.80
2023-12-05T00:18:12.025Z,20.40
2023-12-05T00:19:43.905Z,18.70
2023-12-05T00:21:15.795Z,19.20
2023-12-05T00:22:47.598Z,16.70
2023-12-05T00:24:19.559Z,16.90
2023-12-05T00:25:51.496Z,20.30
2023-12-05T00:27:23.316Z,21.10
2023-12-05T00:28:55.740Z,21.60
2023-12-05T00:30:27.616Z,22.10
2023-12-05T00:31:59.431Z,19.80
2023-12-05T00:33:31.512Z,19.60
2023-12-05T00:35:04.399Z,17.30
2023-12-05T00:36:36.304Z,20.40
2023-12-05T00:38:08.172Z,18.20
2023-12-05T00:39:40.257Z,20.90
2023-12-05T00:41:12.136Z,22.30
2023-12-05T00:42:44.248Z,20.00
2023-12-05T00:44:16.105Z,22.80
2023-12-05T00:45:47.919Z,22.50
2023-12-05T00:47:19.689Z,24.30
2023-12-05T00:48:51.915Z,21.90
2023-12-05T00:50:30.699Z,20.80
2023-12-05T00:52:06.713Z,20.60
2023-12-05T00:53:38.515Z,22.40
2023-12-05T00:55:10.511Z,21.70
2023-12-05T00:56:42.228Z,19.70
2023-12-05T00:58:14.025Z,19.90
2023-12-05T00:59:46.022Z,18.40
2023-12-05T01:01:20.935Z,17.70
2023-12-05T01:02:52.709Z,18.60
2023-12-05T01:04:24.801Z,19.60
2023-12-05T01:05:56.818Z,21.80
2023-12-05T01:07:28.653Z,19.30
2023-12-05T01:09:00.441Z,19.40
2023-12-05T01:10:32.392Z,19.20
2023-12-05T01:12:04.898Z,20.00
2023-12-05T01:13:36.672Z,17.90
2023-12-05T01:15:09.610Z,17.30
2023-12-05T01:16:45.011Z,18.50
2023-12-05T01:18:17.087Z,19.20
2023-12-05T01:19:49.545Z,18.80
2023-12-05T01:21:21.303Z,17.20
2023-12-05T01:22:53.088Z,16.80
2023-12-05T01:24:24.911Z,17.60
2023-12-05T01:25:56.714Z,16.60
2023-12-05T01:27:29.138Z,16.90
2023-12-05T01:29:03.767Z,17.70
2023-12-05T01:30:35.605Z,16.10
2023-12-05T01:32:07.449Z,20.80
2023-12-05T01:33:39.267Z,18.60
2023-12-05T01:35:11.173Z,18.60
2023-12-05T01:36:44.200Z,18.50
2023-12-05T01:38:16.038Z,16.20
2023-12-05T01:39:47.908Z,16.60
2023-12-05T01:41:19.932Z,15.20
2023-12-05T01:42:51.741Z,17.40
2023-12-05T01:44:23.526Z,16.40
2023-12-05T01:45:56.789Z,18.10
2023-12-05T01:47:29.166Z,14.90
2023-12-05T01:49:08.240Z,17.80
2023-12-05T01:50:47.261Z,16.40
2023-12-05T01:52:19.089Z,12.70
2023-12-05T01:53:52.896Z,13.70
2023-12-05T01:55:27.430Z,16.60
2023-12-05T01:57:00.893Z,13.70
2023-12-05T01:58:35.693Z,14.50
2023-12-05T02:00:08.937Z,13.20
2023-12-05T02:01:44.720Z,13.40
2023-12-05T02:03:16.898Z,13.70
2023-12-05T02:04:49.670Z,16.70
2023-12-05T02:06:22.868Z,13.90
2023-12-05T02:07:56.049Z,12.30
2023-12-05T02:09:28.002Z,15.00
2023-12-05T02:10:59.920Z,14.30
2023-12-05T02:12:32.191Z,12.90
2023-12-05T02:14:06.267Z,14.30
2023-12-05T02:15:38.644Z,13.80
2023-12-05T02:17:48.107Z,15.80
2023-12-05T02:19:43.993Z,14.20
2023-12-05T02:21:26.381Z,12.70
2023-12-05T02:23:14.370Z,15.90
2023-12-05T02:25:16.849Z,12.70
2023-12-05T02:27:00.212Z,14.00
2023-12-05T02:28:32.465Z,14.10
2023-12-05T02:30:05.025Z,14.40
2023-12-05T02:31:36.852Z,14.10
2023-12-05T02:33:08.776Z,11.90
2023-12-05T02:34:40.688Z,12.20
2023-12-05T02:36:27.797Z,13.30
2023-12-05T02:38:25.618Z,15.40
2023-12-05T02:40:11.391Z,12.90
2023-12-05T02:41:47.073Z,12.50
2023-12-05T02:43:32.440Z,12.10
2023-12-05T02:45:12.268Z,12.80
2023-12-05T02:46:46.092Z,12.40
2023-12-05T02:48:19.165Z,12.60
2023-12-05T02:49:52.309Z,12.30
2023-12-05T02:51:26.562Z,13.40
2023-12-05T02:52:59.235Z,14.20
2023-12-05T02:54:31.039Z,14.40
2023-12-05T02:56:03.388Z,12.40
2023-12-05T02:57:35.235Z,12.20
2023-12-05T02:59:07.123Z,13.60
2023-12-05T03:00:39.043Z,14.00
2023-12-05T03:02:10.936Z,14.30
2023-12-05T03:03:47.568Z,15.20
2023-12-05T03:05:20.033Z,15.50
2023-12-05T03:06:51.862Z,13.50
2023-12-05T03:08:23.680Z,13.00
2023-12-05T03:09:55.483Z,11.90
2023-12-05T03:11:27.240Z,14.20
2023-12-05T03:12:59.027Z,13.70
2023-12-05T03:14:30.778Z,12.70
2023-12-05T03:16:02.524Z,13.90
2023-12-05T03:17:34.423Z,15.00
2023-12-05T03:19:06.583Z,14.60
2023-12-05T03:20:38.947Z,15.80
2023-12-05T03:22:10.725Z,16.10
2023-12-05T03:23:42.644Z,16.00
2023-12-05T03:25:14.416Z,18.60
2023-12-05T03:26:46.181Z,18.50
2023-12-05T03:28:17.938Z,15.40
2023-12-05T03:29:49.670Z,17.50
2023-12-05T03:31:21.431Z,17.10
2023-12-05T03:32:53.216Z,17.80
2023-12-05T03:34:25.087Z,15.40
2023-12-05T03:35:56.789Z,16.50
2023-12-05T03:37:29.171Z,17.10
2023-12-05T03:39:01.147Z,19.10
2023-12-05T03:40:32.949Z,18.00
2023-12-05T03:42:07.211Z,15.90
2023-12-05T03:43:39.014Z,18.30
2023-12-05T03:45:10.891Z,19.50
2023-12-05T03:46:42.757Z,18.50
2023-12-05T03:48:14.641Z,17.60
2023-12-05T03:49:46.514Z,15.80
2023-12-05T03:51:18.483Z,16.50
2023-12-05T03:52:50.271Z,16.60
2023-12-05T03:54:22.306Z,17.50
2023-12-05T03:55:54.056Z,18.00
2023-12-05T03:57:27.299Z,18.00
2023-12-05T03:58:59.135Z,19.20
2023-12-05T04:00:31.900Z,17.10
2023-12-05T04:02:03.961Z,22.10
2023-12-05T04:03:38.977Z,18.20
2023-12-05T04:05:11.150Z,15.10
2023-12-05T04:06:43.225Z,15.60
2023-12-05T04:08:15.009Z,15.20
2023-12-05T04:09:47.987Z,17.10
2023-12-05T04:11:34.385Z,16.60
2023-12-05T04:13:06.282Z,15.60
2023-12-05T04:14:40.378Z,13.60
2023-12-05T04:16:12.360Z,14.70
2023-12-05T04:17:44.158Z,16.00
2023-12-05T04:19:16.257Z,13.70
2023-12-05T04:20:48.132Z,13.40
2023-12-05T04:22:19.875Z,13.60
2023-12-05T04:23:51.777Z,14.40
2023-12-05T04:25:24.025Z,17.70
2023-12-05T04:26:55.912Z,12.60
2023-12-05T04:28:29.682Z,14.20
2023-12-05T04:30:01.548Z,13.80
2023-12-05T04:31:33.356Z,18.00
2023-12-05T04:33:05.195Z,16.70
2023-12-05T04:34:37.237Z,15.30
2023-12-05T04:36:10.878Z,19.50
2023-12-05T04:37:42.586Z,13.60
2023-12-05T04:39:14.396Z,13.00
2023-12-05T04:40:46.163Z,14.30
2023-12-05T04:42:18.189Z,13.40
2023-12-05T04:43:50.027Z,14.70
2023-12-05T04:45:25.361Z,14.20
2023-12-05T04:46:58.598Z,17.40
2023-12-05T04:48:30.389Z,13.50
2023-12-05T04:50:02.588Z,13.10
2023-12-05T04:51:35.450Z,14.50
2023-12-05T04:53:07.510Z,12.80
2023-12-05T04:54:39.370Z,15.30
2023-12-05T04:56:11.619Z,12.50
2023-12-05T04:57:43.474Z,13.90
2023-12-05T04:59:15.273Z,14.80
2023-12-05T05:00:47.304Z,14.10
2023-12-05T05:02:19.156Z,16.60
2023-12-05T05:03:51.133Z,13.10
2023-12-05T05:05:23.196Z,15.20
2023-12-05T05:06:55.109Z,16.00
2023-12-05T05:08:26.913Z,14.90
2023-12-05T05:09:58.743Z,14.30
2023-12-05T05:11:30.461Z,15.30
2023-12-05T05:13:02.197Z,14.80
2023-12-05T05:14:33.992Z,14.20
2023-12-05T05:16:08.525Z,15.90
2023-12-05T05:17:40.286Z,14.30
2023-12-05T05:19:12.150Z,13.40
2023-12-05T05:20:44.067Z,13.70
2023-12-05T05:22:16.578Z,14.90
2023-12-05T05:23:48.468Z,13.30
2023-12-05T05:25:20.494Z,14.10
2023-12-05T05:26:52.664Z,13.40
2023-12-05T05:28:24.419Z,15.70
2023-12-05T05:29:56.291Z,15.90
2023-12-05T05:31:28.064Z,16.90
2023-12-05T05:33:00.508Z,16.50
2023-12-05T05:34:34.059Z,15.30
2023-12-05T05:36:07.010Z,15.90
2023-12-05T05:37:38.872Z,13.60
2023-12-05T05:39:10.748Z,13.30
2023-12-05T05:40:43.778Z,17.10
2023-12-05T05:42:15.597Z,17.30
2023-12-05T05:43:47.458Z,15.30
2023-12-05T05:45:19.282Z,15.40
2023-12-05T05:46:51.084Z,16.20
2023-12-05T05:48:22.905Z,15.20
2023-12-05T05:49:54.704Z,14.80
2023-12-05T05:51:26.654Z,16.40
2023-12-05T05:52:58.467Z,14.90
2023-12-05T05:54:30.447Z,14.90
2023-12-05T05:56:02.677Z,12.90
2023-12-05T05:57:37.143Z,13.20
2023-12-05T05:59:09.167Z,11.90
2023-12-05T06:00:41.057Z,9.40
2023-12-05T06:02:13.807Z,13.50
2023-12-05T06:03:45.836Z,9.80
2023-12-05T06:05:17.919Z,12.60
2023-12-05T06:06:50.470Z,11.70
2023-12-05T06:08:22.260Z,12.00
2023-12-05T06:09:54.301Z,9.90
2023-12-05T06:11:26.150Z,9.30
2023-12-05T06:12:57.904Z,10.90
2023-12-05T06:14:29.761Z,10.10
2023-12-05T06:16:02.513Z,11.00
2023-12-05T06:17:34.501Z,12.10
2023-12-05T06:19:06.688Z,10.60
2023-12-05T06:20:38.780Z,9.00
2023-12-05T06:22:10.609Z,10.30
2023-12-05T06:23:42.446Z,9.50
2023-12-05T06:25:14.574Z,9.80
2023-12-05T06:26:46.333Z,7.60
2023-12-05T06:28:18.196Z,7.90
2023-12-05T06:29:50.147Z,11.50
2023-12-05T06:31:22.149Z,10.20
2023-12-05T06:32:54.240Z,9.10
2023-12-05T06:34:26.708Z,9.80
2023-12-05T06:35:58.635Z,8.70
2023-12-05T06:37:31.383Z,7.70
2023-12-05T06:39:04.292Z,8.30
2023-12-05T06:40:36.277Z,8.30
2023-12-05T06:42:08.045Z,8.30
2023-12-05T06:43:39.978Z,9.30
2023-12-05T06:45:11.819Z,7.90
2023-12-05T06:46:43.572Z,8.80
2023-12-05T06:48:16.753Z,6.30
2023-12-05T06:49:49.194Z,7.00
2023-12-05T06:51:21.554Z,8.80
2023-12-05T06:52:58.450Z,7.30
2023-12-05T06:54:30.567Z,7.80
2023-12-05T06:56:02.374Z,8.50
2023-12-05T06:57:34.232Z,7.40
2023-12-05T06:59:05.969Z,8.30
2023-12-05T07:00:38.561Z,7.70
2023-12-05T07:02:10.416Z,12.60
2023-12-05T07:03:47.815Z,8.20
2023-12-05T07:05:25.306Z,8.80
2023-12-05T07:06:58.077Z,9.00
2023-12-05T07:08:30.650Z,8.70
2023-12-05T07:10:03.463Z,7.50
2023-12-05T07:11:35.401Z,9.30
2023-12-05T07:13:07.305Z,8.60
2023-12-05T07:14:39.146Z,7.60
2023-12-05T07:16:12.386Z,9.20
2023-12-05T07:17:44.555Z,7.70
2023-12-05T07:19:16.440Z,8.80
2023-12-05T07:20:48.172Z,8.40
2023-12-05T07:22:19.930Z,9.00
2023-12-05T07:23:58.747Z,7.70
2023-12-05T07:25:32.616Z,9.40
2023-12-05T07:27:04.993Z,8.00
2023-12-05T07:28:36.757Z,8.40
2023-12-05T07:30:09.218Z,8.60
2023-12-05T07:31:41.160Z,8.60
2023-12-05T07:33:12.952Z,8.50
2023-12-05T07:34:45.204Z,10.00
2023-12-05T07:36:17.485Z,9.70
2023-12-05T07:37:50.481Z,8.50
2023-12-05T07:39:22.329Z,9.00
2023-12-05T07:40:55.235Z,8.90
2023-12-05T07:42:27.135Z,7.90
2023-12-05T07:43:59.276Z,8.50
2023-12-05T07:45:31.603Z,8.60
2023-12-05T07:47:04.354Z,10.10
2023-12-05T07:48:36.774Z,8.50
2023-12-05T07:50:09.494Z,8.20
2023-12-05T07:51:41.440Z,8.60
2023-12-05T07:53:13.308Z,8.30
2023-12-05T07:54:45.353Z,8.70
2023-12-05T07:56:17.306Z,10.80
2023-12-05T07:57:51.537Z,9.00
2023-12-05T07:59:23.317Z,8.10
2023-12-05T08:00:55.062Z,8.90
2023-12-05T08:02:27.353Z,9.70
2023-12-05T08:04:02.782Z,8.60
2023-12-05T08:05:34.778Z,8.70
2023-12-05T08:07:09.652Z,9.20
2023-12-05T08:08:41.545Z,9.80
2023-12-05T08:10:13.749Z,9.00
2023-12-05T08:11:45.570Z,9.50
2023-12-05T08:13:17.525Z,10.20
2023-12-05T08:14:49.454Z,10.20
2023-12-05T08:16:21.741Z,9.90
2023-12-05T08:17:53.669Z,9.20
2023-12-05T08:19:26.558Z,10.10
2023-12-05T08:20:58.989Z,9.30
2023-12-05T08:22:31.566Z,9.00
2023-12-05T08:24:03.661Z,14.20
2023-12-05T08:25:35.431Z,9.20
2023-12-05T08:27:07.254Z,8.80
2023-12-05T08:28:39.295Z,10.20
2023-12-05T08:30:12.565Z,8.80
2023-12-05T08:31:44.256Z,10.10
2023-12-05T08:33:16.512Z,12.50
2023-12-05T08:34:48.597Z,8.80
2023-12-05T08:36:20.726Z,8.80
2023-12-05T08:37:52.609Z,8.00
2023-12-05T08:39:24.385Z,9.00
2023-12-05T08:40:56.377Z,9.50
2023-12-05T08:42:31.367Z,8.60
2023-12-05T08:44:03.402Z,8.50
2023-12-05T08:45:35.423Z,7.50
2023-12-05T08:47:10.306Z,7.70
2023-12-05T08:48:42.642Z,9.40
2023-12-05T08:50:14.834Z,7.80
2023-12-05T08:51:46.848Z,7.40
2023-12-05T08:53:18.696Z,7.50
2023-12-05T08:54:50.625Z,8.20
2023-12-05T08:56:22.467Z,10.90
2023-12-05T08:57:54.296Z,7.20
2023-12-05T08:59:26.756Z,8.00
2023-12-05T09:00:58.530Z,6.40
2023-12-05T09:02:30.967Z,6.60
2023-12-05T09:04:05.395Z,6.90
2023-12-05T09:05:37.640Z,6.80
2023-12-05T09:07:09.591Z,8.30
2023-12-05T09:08:41.489Z,6.60
2023-12-05T09:10:13.329Z,7.60
2023-12-05T09:11:46.226Z,6.50
2023-12-05T09:13:18.120Z,8.60
2023-12-05T09:14:50.445Z,8.60
2023-12-05T09:16:22.696Z,6.80
2023-12-05T09:17:54.558Z,7.30
2023-12-05T09:19:26.344Z,5.30
2023-12-05T09:21:01.102Z,5.50
2023-12-05T09:22:33.140Z,5.60
2023-12-05T09:24:09.342Z,5.40
2023-12-05T09:25:41.219Z,7.50
2023-12-05T09:27:13.408Z,5.20
2023-12-05T09:28:45.947Z,7.40
2023-12-05T09:30:18.415Z,4.80
2023-12-05T09:31:50.233Z,4.40
2023-12-05T09:33:21.980Z,5.60
2023-12-05T09:34:53.774Z,4.30
2023-12-05T09:36:25.605Z,4.40
2023-12-05T09:37:57.569Z,5.40
2023-12-05T09:39:30.567Z,4.30
2023-12-05T09:41:03.808Z,4.40
2023-12-05T09:42:36.679Z,5.30
2023-12-05T09:44:09.828Z,4.10
2023-12-05T09:45:46.647Z,5.40
2023-12-05T09:47:22.932Z,3.70
2023-12-05T09:49:02.444Z,4.60
2023-12-05T09:50:38.115Z,4.70
2023-12-05T09:52:10.014Z,5.70
2023-12-05T09:53:45.225Z,4.00
2023-12-05T09:55:18.967Z,4.00
2023-12-05T09:56:54.726Z,4.50
2023-12-05T09:58:27.848Z,4.90
2023-12-05T09:59:59.587Z,4.50
2023-12-05T10:01:35.463Z,3.90
2023-12-05T10:03:08.311Z,3.70
2023-12-05T10:04:46.486Z,5.20
2023-12-05T10:06:21.485Z,6.00
2023-12-05T10:07:54.693Z,2.90
2023-12-05T10:09:29.165Z,3.40
2023-12-05T10:11:05.528Z,4.50
2023-12-05T10:12:38.848Z,3.10
2023-12-05T10:14:10.632Z,4.20
2023-12-05T10:15:44.483Z,3.40
2023-12-05T10:17:16.348Z,4.30
2023-12-05T10:18:48.360Z,2.80
2023-12-05T10:20:20.592Z,3.20
2023-12-05T10:21:52.862Z,3.20
2023-12-05T10:23:24.822Z,3.40
2023-12-05T10:24:57.142Z,2.40
2023-12-05T10:26:29.840Z,2.90
2023-12-05T10:28:07.921Z,3.00
2023-12-05T10:29:42.507Z,4.00
2023-12-05T10:31:15.772Z,2.00
2023-12-05T10:32:47.599Z,3.10
2023-12-05T10:34:19.452Z,3.30
2023-12-05T10:35:51.346Z,2.60
2023-12-05T10:37:29.620Z,1.70
2023-12-05T10:39:01.984Z,3.20
2023-12-05T10:40:59.826Z,2.40
2023-12-05T10:42:31.950Z,2.40
2023-12-05T10:44:04.087Z,2.60
2023-12-05T10:45:36.073Z,3.40
2023-12-05T10:47:10.298Z,3.40
2023-12-05T10:48:42.279Z,3.30
2023-12-05T10:50:14.214Z,2.60
2023-12-05T10:51:46.042Z,2.30
2023-12-05T10:53:19.280Z,2.50
2023-12-05T10:54:57.754Z,2.60
2023-12-05T10:56:29.680Z,2.20
2023-12-05T10:58:03.116Z,2.10
2023-12-05T10:59:35.971Z,2.60
2023-12-05T11:01:12.263Z,1.90
2023-12-05T11:02:46.248Z,2.90
2023-12-05T11:04:18.961Z,3.30
2023-12-05T11:05:50.915Z,2.70
2023-12-05T11:07:22.677Z,2.10
2023-12-05T11:08:54.424Z,3.70
2023-12-05T11:10:27.959Z,1.70
2023-12-05T11:12:04.701Z,1.80
2023-12-05T11:13:39.028Z,2.40
2023-12-05T11:15:14.169Z,2.20
2023-12-05T11:16:50.862Z,2.10
2023-12-05T11:18:37.892Z,2.60
2023-12-05T11:20:52.835Z,2.10
2023-12-05T11:23:15.281Z,2.60
2023-12-05T11:25:43.035Z,1.80
2023-12-05T11:27:31.086Z,2.20
2023-12-05T11:29:38.318Z,2.50
2023-12-05T11:31:18.953Z,1.70
2023-12-05T11:33:16.191Z,2.60
2023-12-05T11:35:03.924Z,1.40
2023-12-05T11:36:47.540Z,2.20
2023-12-05T11:38:21.944Z,1.80
2023-12-05T11:39:54.711Z,2.00
2023-12-05T11:41:28.923Z,2.20
2023-12-05T11:43:14.846Z,2.50
2023-12-05T11:44:46.815Z,2.40
2023-12-05T11:46:19.301Z,1.80
2023-12-05T11:47:51.965Z,1.20
2023-12-05T11:49:46.899Z,2.50
2023-12-05T11:51:19.200Z,2.30
2023-12-05T11:52:51.260Z,4.10
2023-12-05T11:54:24.824Z,1.60
2023-12-05T11:55:58.514Z,3.70
2023-12-05T11:57:34.263Z,2.40
2023-12-05T11:59:14.788Z,2.30
2023-12-05T12:00:48.371Z,1.30
2023-12-05T12:02:42.648Z,2.00
2023-12-05T12:04:20.946Z,2.20
2023-12-05T12:06:03.296Z,2.60
2023-12-05T12:07:59.531Z,5.90
2023-12-05T12:09:40.802Z,3.70
2023-12-05T12:11:13.451Z,1.90
2023-12-05T12:12:47.469Z,2.90
2023-12-05T12:14:20.630Z,3.10
2023-12-05T12:15:52.626Z,2.50
2023-12-05T12:17:24.561Z,1.40
2023-12-05T12:19:04.669Z,2.10
2023-12-05T12:20:37.294Z,2.50
2023-12-05T12:22:10.863Z,2.70
2023-12-05T12:23:42.604Z,3.00
2023-12-05T12:25:15.006Z,3.20
2023-12-05T12:26:55.377Z,3.50
2023-12-05T12:28:29.981Z,1.90
2023-12-05T12:30:02.119Z,2.90
2023-12-05T12:31:34.078Z,1.80
2023-12-05T12:33:06.974Z,2.70
2023-12-05T12:34:47.053Z,2.20
2023-12-05T12:36:20.176Z,2.60
2023-12-05T12:37:56.215Z,2.80
2023-12-05T12:39:28.488Z,1.80
2023-12-05T12:41:01.300Z,2.30
2023-12-05T12:42:34.163Z,2.80
2023-12-05T12:44:06.646Z,2.80
2023-12-05T12:45:38.825Z,4.50
2023-12-05T12:47:14.615Z,3.00
2023-12-05T12:48:47.306Z,2.50
2023-12-05T12:50:20.779Z,2.70
2023-12-05T12:51:55.802Z,3.20
2023-12-05T12:53:27.784Z,1.90
2023-12-05T12:54:59.668Z,2.40
2023-12-05T12:56:34.513Z,2.80
2023-12-05T12:58:06.926Z,2.60
2023-12-05T12:59:42.275Z,3.90
2023-12-05T13:01:14.861Z,2.90
2023-12-05T13:02:51.975Z,3.30
2023-12-05T13:04:29.749Z,3.40
2023-12-05T13:06:02.222Z,3.10
2023-12-05T13:07:34.398Z,2.70
2023-12-05T13:09:24.401Z,3.50
2023-12-05T13:10:56.834Z,3.10
2023-12-05T13:12:28.862Z,2.30
2023-12-05T13:14:00.621Z,4.00
2023-12-05T13:15:32.758Z,2.60
2023-12-05T13:17:11.197Z,3.40
2023-12-05T13:18:46.654Z,2.70
2023-12-05T13:20:18.910Z,2.70
2023-12-05T13:21:51.130Z,3.50
2023-12-05T13:23:24.376Z,3.10
2023-12-05T13:24:56.283Z,4.40
2023-12-05T13:26:28.213Z,4.30
2023-12-05T13:28:00.248Z,2.40
2023-12-05T13:29:32.774Z,4.90
2023-12-05T13:31:05.003Z,2.30
2023-12-05T13:32:36.766Z,4.00
2023-12-05T13:34:09.143Z,4.30
2023-12-05T13:35:42.582Z,3.00
2023-12-05T13:37:14.630Z,4.80
2023-12-05T13:38:46.416Z,4.50
2023-12-05T13:40:18.335Z,4.60
2023-12-05T13:41:50.150Z,4.20
2023-12-05T13:43:22.057Z,2.80
2023-12-05T13:44:56.362Z,5.00
2023-12-05T13:46:29.961Z,5.40
2023-12-05T13:48:01.997Z,6.30
2023-12-05T13:49:33.938Z,5.80
2023-12-05T13:51:09.523Z,4.80
2023-12-05T13:52:41.337Z,6.30
2023-12-05T13:54:13.201Z,6.30
2023-12-05T13:55:45.288Z,3.90
2023-12-05T13:57:17.181Z,6.10
2023-12-05T13:58:49.517Z,5.30
2023-12-05T14:00:21.743Z,6.30
2023-12-05T14:01:53.559Z,5.70
2023-12-05T14:03:25.710Z,4.70
2023-12-05T14:04:57.767Z,5.90
2023-12-05T14:06:29.996Z,5.60
2023-12-05T14:08:01.799Z,7.40
2023-12-05T14:09:33.575Z,4.60
2023-12-05T14:11:06.504Z,4.90
2023-12-05T14:12:38.313Z,5.80
2023-12-05T14:14:10.092Z,6.70
2023-12-05T14:15:42.130Z,5.30
2023-12-05T14:17:15.538Z,6.20
2023-12-05T14:18:47.586Z,6.40
2023-12-05T14:20:20.467Z,4.60
2023-12-05T14:21:52.499Z,4.00
2023-12-05T14:23:24.314Z,5.30
2023-12-05T14:24:56.133Z,3.40
2023-12-05T14:26:28.079Z,5.30
2023-12-05T14:27:59.897Z,4.60
2023-12-05T14:29:32.758Z,4.20
2023-12-05T14:31:05.021Z,6.80
2023-12-05T14:32:36.884Z,4.10
2023-12-05T14:34:09.994Z,4.00
2023-12-05T14:35:42.059Z,4.70
2023-12-05T14:37:14.214Z,5.90
2023-12-05T14:38:46.237Z,5.00
2023-12-05T14:40:18.438Z,4.00
2023-12-05T14:41:51.197Z,3.40
2023-12-05T14:43:24.066Z,5.50
2023-12-05T14:44:55.850Z,5.10
2023-12-05T14:46:27.627Z,4.40
2023-12-05T14:47:59.455Z,5.50
2023-12-05T14:49:31.905Z,6.40
2023-12-05T14:51:04.070Z,9.90
2023-12-05T14:52:36.163Z,10.90
2023-12-05T14:54:08.065Z,11.30
2023-12-05T14:55:41.065Z,10.80
2023-12-05T14:57:13.056Z,13.80
2023-12-05T14:58:46.301Z,12.90
2023-12-05T15:00:20.333Z,10.90
2023-12-05T15:01:52.461Z,10.00
2023-12-05T15:03:24.509Z,9.30
2023-12-05T15:04:57.532Z,9.40
2023-12-05T15:06:29.500Z,9.40
2023-12-05T15:08:01.360Z,10.30
2023-12-05T15:09:34.609Z,9.80
2023-12-05T15:11:07.293Z,9.90
2023-12-05T15:12:41.028Z,11.50
2023-12-05T15:14:12.908Z,10.80
2023-12-05T15:15:48.929Z,10.40
2023-12-05T15:17:21.487Z,10.20
2023-12-05T15:18:54.587Z,9.90
2023-12-05T15:20:26.762Z,10.40
2023-12-05T15:22:01.675Z,9.30
2023-12-05T15:23:34.778Z,7.80
2023-12-05T15:25:07.507Z,9.70
2023-12-05T15:26:39.875Z,12.60
2023-12-05T15:28:12.633Z,13.10
2023-12-05T15:29:44.571Z,12.50
2023-12-05T15:31:16.942Z,12.60
2023-12-05T15:32:52.623Z,14.80
2023-12-05T15:34:31.756Z,13.10
2023-12-05T15:36:12.780Z,13.90
2023-12-05T15:37:45.497Z,14.60
2023-12-05T15:39:17.365Z,15.80
2023-12-05T15:40:49.486Z,19.80
2023-12-05T15:42:21.372Z,18.50
2023-12-05T15:43:53.167Z,16.80
2023-12-05T15:45:25.319Z,15.20
2023-12-05T15:46:58.228Z,15.10
2023-12-05T15:48:43.787Z,13.10
2023-12-05T15:50:20.145Z,13.70
2023-12-05T15:51:52.363Z,18.00
2023-12-05T15:53:24.177Z,15.60
2023-12-05T15:54:56.040Z,15.90
2023-12-05T15:56:30.358Z,18.20
2023-12-05T15:58:03.002Z,17.80
2023-12-05T15:59:35.193Z,18.40
2023-12-05T16:01:07.684Z,18.00
2023-12-05T16:02:41.218Z,16.70
2023-12-05T16:04:13.098Z,18.00
2023-12-05T16:05:45.597Z,21.30
2023-12-05T16:07:17.834Z,20.50
2023-12-05T16:08:49.997Z,20.20
2023-12-05T16:10:21.946Z,21.20
2023-12-05T16:12:00.633Z,22.00
2023-12-05T16:13:46.648Z,18.30
2023-12-05T16:15:24.950Z,23.20
2023-12-05T16:16:56.825Z,22.90
2023-12-05T16:18:28.641Z,23.20
2023-12-05T16:20:00.682Z,21.10
2023-12-05T16:21:33.508Z,20.00
2023-12-05T16:23:05.757Z,28.60
2023-12-05T16:24:38.428Z,25.30
2023-12-05T16:26:10.389Z,22.20
2023-12-05T16:27:42.785Z,21.70
2023-12-05T16:29:14.815Z,19.80
2023-12-05T16:30:46.900Z,21.00
2023-12-05T16:32:19.134Z,22.50
2023-12-05T16:33:51.251Z,21.40
2023-12-05T16:35:23.120Z,20.20
2023-12-05T16:36:55.064Z,20.70
2023-12-05T16:38:26.943Z,20.10
2023-12-05T16:39:58.958Z,19.70
2023-12-05T16:41:35.360Z,19.50
2023-12-05T16:43:08.413Z,16.70
2023-12-05T16:44:47.840Z,17.90
2023-12-05T16:46:20.453Z,16.40
2023-12-05T16:47:57.208Z,18.00
2023-12-05T16:49:29.340Z,16.20
2023-12-05T16:51:01.393Z,15.30
2023-12-05T16:52:33.315Z,15.50
2023-12-05T16:54:05.785Z,14.10
2023-12-05T16:55:37.721Z,14.90
2023-12-05T16:57:10.610Z,13.10
2023-12-05T16:58:42.772Z,12.50
2023-12-05T17:00:15.594Z,11.00
2023-12-05T17:01:51.329Z,12.60
2023-12-05T17:03:23.203Z,13.10
2023-12-05T17:04:55.678Z,14.50
2023-12-05T17:06:27.977Z,12.10
2023-12-05T17:08:00.081Z,14.10
2023-12-05T17:09:32.856Z,14.30
2023-12-05T17:11:06.064Z,14.70
2023-12-05T17:12:38.055Z,13.90
2023-12-05T17:14:09.897Z,14.10
2023-12-05T17:15:41.790Z,14.10
2023-12-05T17:17:14.276Z,14.50
2023-12-05T17:18:47.290Z,14.40
2023-12-05T17:20:19.487Z,14.30
2023-12-05T17:21:51.575Z,13.40
2023-12-05T17:23:24.969Z,14.80
2023-12-05T17:24:57.080Z,13.70
2023-12-05T17:26:29.530Z,15.50
2023-12-05T17:28:02.445Z,17.80
2023-12-05T17:29:34.557Z,16.80
2023-12-05T17:31:07.802Z,15.90
2023-12-05T17:32:40.690Z,16.60
2023-12-05T17:34:12.632Z,17.50
2023-12-05T17:35:44.815Z,19.60
2023-12-05T17:37:17.623Z,15.60
2023-12-05T17:38:49.748Z,17.20
2023-12-05T17:40:21.673Z,20.30
2023-12-05T17:41:54.895Z,20.40
2023-12-05T17:43:27.631Z,22.60
2023-12-05T17:44:59.516Z,21.40
2023-12-05T17:46:31.380Z,18.30
2023-12-05T17:48:03.290Z,19.70
2023-12-05T17:49:35.305Z,21.00
2023-12-05T17:51:09.718Z,19.00
2023-12-05T17:52:44.590Z,17.70
2023-12-05T17:54:17.465Z,20.40
2023-12-05T17:55:49.487Z,19.00
2023-12-05T17:57:23.205Z,21.60
2023-12-05T17:58:55.281Z,22.90
2023-12-05T18:00:27.256Z,25.90
2023-12-05T18:01:59.253Z,28.20
2023-12-05T18:03:31.362Z,27.60
2023-12-05T18:05:04.519Z,30.40
2023-12-05T18:06:36.414Z,31.00
2023-12-05T18:08:09.306Z,27.80
2023-12-05T18:09:41.596Z,27.30
2023-12-05T18:11:13.449Z,26.40
2023-12-05T18:12:45.500Z,24.80
2023-12-05T18:14:18.067Z,23.90
2023-12-05T18:15:50.122Z,23.70
2023-12-05T18:17:22.319Z,30.40
2023-12-05T18:18:54.821Z,26.80
2023-12-05T18:20:26.992Z,25.20
2023-12-05T18:22:00.358Z,26.90
2023-12-05T18:23:33.004Z,32.90
2023-12-05T18:25:08.016Z,27.30
2023-12-05T18:26:40.190Z,33.10
2023-12-05T18:28:12.124Z,26.70
2023-12-05T18:29:45.710Z,36.00
2023-12-05T18:31:18.508Z,35.20
2023-12-05T18:32:50.870Z,34.00
2023-12-05T18:34:23.945Z,32.90
2023-12-05T18:35:55.986Z,32.70
2023-12-05T18:37:28.539Z,33.90
2023-12-05T18:39:01.005Z,31.80
2023-12-05T18:40:32.884Z,35.90
2023-12-05T18:42:06.128Z,33.90
2023-12-05T18:43:39.130Z,35.20
2023-12-05T18:45:11.822Z,34.10
2023-12-05T18:46:43.803Z,32.60
2023-12-05T18:48:15.723Z,37.00
2023-12-05T18:49:47.758Z,29.90
2023-12-05T18:51:19.696Z,34.90
2023-12-05T18:52:51.588Z,29.90
2023-12-05T18:54:23.790Z,34.30
2023-12-05T18:55:59.780Z,32.40
2023-12-05T18:57:32.360Z,32.90
2023-12-05T18:59:04.182Z,28.70
2023-12-05T19:00:38.683Z,31.20
2023-12-05T19:02:11.258Z,30.00
2023-12-05T19:03:43.281Z,30.50
2023-12-05T19:05:15.157Z,26.30
2023-12-05T19:06:48.100Z,25.80
2023-12-05T19:08:21.047Z,34.90
2023-12-05T19:09:52.837Z,21.50
2023-12-05T19:11:24.770Z,25.80
2023-12-05T19:12:58.691Z,28.10
2023-12-05T19:14:30.567Z,23.60
2023-12-05T19:16:04.620Z,29.40
2023-12-05T19:17:36.534Z,31.60
2023-12-05T19:19:09.601Z,29.80
2023-12-05T19:20:45.383Z,29.00
2023-12-05T19:22:18.552Z,32.60
2023-12-05T19:23:50.911Z,30.30
2023-12-05T19:25:23.245Z,31.80
2023-12-05T19:26:56.428Z,31.10
2023-12-05T19:28:29.779Z,39.50
2023-12-05T19:30:05.221Z,33.00
2023-12-05T19:31:39.296Z,30.00
2023-12-05T19:33:26.343Z,30.20
2023-12-05T19:35:01.081Z,35.20
2023-12-05T19:36:35.192Z,30.30
2023-12-05T19:38:07.925Z,34.60
2023-12-05T19:39:41.150Z,29.50
2023-12-05T19:41:13.315Z,26.50
2023-12-05T19:42:45.679Z,30.90
2023-12-05T19:44:17.773Z,33.80
2023-12-05T19:45:52.069Z,28.30
2023-12-05T19:47:24.419Z,25.60
2023-12-05T19:48:58.993Z,23.50
2023-12-05T19:50:30.826Z,23.20
2023-12-05T19:52:02.695Z,22.70
2023-12-05T19:53:36.679Z,25.30
2023-12-05T19:55:08.869Z,27.20
2023-12-05T19:56:40.922Z,20.80
2023-12-05T19:58:13.364Z,19.40
2023-12-05T19:59:46.233Z,22.70
2023-12-05T20:01:18.782Z,22.40
2023-12-05T20:02:54.645Z,22.20
2023-12-05T20:04:26.530Z,19.20
2023-12-05T20:06:00.617Z,23.80
2023-12-05T20:07:37.704Z,21.20
2023-12-05T20:09:10.988Z,20.10
2023-12-05T20:10:43.379Z,21.90
2023-12-05T20:12:15.341Z,20.50
2023-12-05T20:13:51.441Z,24.10
2023-12-05T20:15:23.298Z,17.20
2023-12-05T20:16:55.318Z,19.70
2023-12-05T20:18:30.016Z,17.80
2023-12-05T20:20:01.934Z,18.10
2023-12-05T20:21:34.243Z,18.50
2023-12-05T20:23:09.455Z,19.00